Time;durP1;ratioP1;P1;durP2;ratioP2;P2;SDS_P1;SDS_P2;PMS_P1;PMS_P2;Temp;Humidity;BMP_temperature;BMP_pressure;BME280_temperature;BME280_humidity;BME280_pressure;Samples;Min_cycle;Max_cycle;Signal;HPM_P1;HPM_P2
2023/07/04 00:01:32;;;;;;;20.70;11.95;;;25.80;59.00;;;;;;7639639;22;83384;-63
2023/07/04 00:04:32;;;;;;;17.63;11.13;;;25.80;58.90;;;;;;7639393;22;84295;-62
2023/07/04 00:07:34;;;;;;;19.30;11.85;;;25.80;58.90;;;;;;7639313;22;83011;-62
2023/07/04 00:10:36;;;;;;;21.48;12.07;;;25.80;58.90;;;;;;7638680;22;82910;-62
2023/07/04 00:13:37;;;;;;;20.92;12.10;;;25.80;58.80;;;;;;7638480;22;83005;-62
2023/07/04 00:16:37;;;;;;;17.35;11.98;;;25.80;58.80;;;;;;7639544;22;83812;-62
2023/07/04 00:19:39;;;;;;;17.02;11.48;;;25.80;58.70;;;;;;7640442;22;83093;-63
2023/07/04 00:22:40;;;;;;;18.58;12.02;;;25.70;58.70;;;;;;7639505;22;83206;-60
2023/07/04 00:25:40;;;;;;;21.00;12.88;;;25.80;58.70;;;;;;7638494;22;83011;-62
2023/07/04 00:28:42;;;;;;;22.45;12.32;;;25.80;58.40;;;;;;7638954;22;83613;-62
2023/07/04 00:31:44;;;;;;;18.73;11.55;;;25.80;58.50;;;;;;7638276;22;84060;-63
2023/07/04 00:34:46;;;;;;;18.27;12.27;;;25.80;58.40;;;;;;7611420;22;85822;-62
2023/07/04 00:37:47;;;;;;;21.05;11.75;;;25.70;58.60;;;;;;7638370;22;83804;-58
2023/07/04 00:40:50;;;;;;;21.65;11.82;;;25.70;58.60;;;;;;7639016;22;83831;-58
2023/07/04 00:44:14;;;;;;;18.30;11.77;;;25.70;58.40;;;;;;7639348;22;83418;-59
2023/07/04 00:47:14;;;;;;;21.05;12.57;;;25.70;59.10;;;;;;7611648;22;85759;-58
2023/07/04 00:50:19;;;;;;;17.88;11.63;;;25.70;58.10;;;;;;7640030;22;83479;-58
2023/07/04 00:53:19;;;;;;;17.83;11.50;;;25.70;58.40;;;;;;7639516;22;83291;-59
2023/07/04 00:56:20;;;;;;;22.13;11.75;;;25.70;58.20;;;;;;7638939;22;82729;-62
2023/07/04 00:59:20;;;;;;;20.08;12.73;;;25.80;58.20;;;;;;7639989;22;82896;-62
2023/07/04 01:02:24;;;;;;;20.33;11.48;;;25.80;58.10;;;;;;7611575;22;84067;-62
2023/07/04 01:05:24;;;;;;;18.67;10.88;;;25.70;58.10;;;;;;7613129;22;84468;-62
2023/07/04 01:08:25;;;;;;;18.42;11.73;;;25.70;58.20;;;;;;7638607;22;83112;-63
2023/07/04 01:11:26;;;;;;;21.33;12.85;;;25.80;58.30;;;;;;7639577;22;82948;-63
2023/07/04 01:14:27;;;;;;;19.77;12.32;;;25.80;58.30;;;;;;7638691;22;83353;-62
2023/07/04 01:17:27;;;;;;;22.92;12.27;;;25.70;58.20;;;;;;7634074;22;83168;-62
2023/07/04 01:20:28;;;;;;;19.55;11.95;;;25.70;58.30;;;;;;7611457;22;84011;-62
2023/07/04 01:23:28;;;;;;;21.48;12.25;;;25.70;58.30;;;;;;7611767;22;84385;-62
2023/07/04 01:26:30;;;;;;;20.42;12.05;;;25.70;58.60;;;;;;7638352;22;82813;-62
2023/07/04 01:29:31;;;;;;;16.48;11.45;;;25.70;58.60;;;;;;7639283;22;83037;-63
2023/07/04 01:32:32;;;;;;;18.02;11.65;;;25.70;58.70;;;;;;7611467;22;85535;-63
2023/07/04 01:35:33;;;;;;;21.83;12.55;;;25.80;58.50;;;;;;7638743;22;83923;-64
2023/07/04 01:38:34;;;;;;;19.92;11.95;;;25.80;58.60;;;;;;7638094;22;82929;-63
2023/07/04 01:41:35;;;;;;;21.35;12.35;;;25.80;59.30;;;;;;7638441;22;82938;-63
2023/07/04 01:44:36;;;;;;;17.25;11.40;;;25.80;58.70;;;;;;7611672;22;85108;-63
2023/07/04 01:47:36;;;;;;;19.58;12.50;;;25.80;58.70;;;;;;7637992;22;82850;-64
2023/07/04 01:50:37;;;;;;;21.80;11.70;;;25.70;58.70;;;;;;7638682;22;82762;-64
2023/07/04 01:53:37;;;;;;;18.98;12.30;;;25.70;58.80;;;;;;7639026;22;82969;-62
2023/07/04 01:56:38;;;;;;;19.27;11.68;;;25.70;59.00;;;;;;7610586;22;84652;-62
2023/07/04 01:59:38;;;;;;;25.05;13.13;;;25.70;59.00;;;;;;7611999;22;85589;-61
2023/07/04 02:02:39;;;;;;;22.95;12.85;;;25.70;59.00;;;;;;7638052;22;83119;-61
2023/07/04 02:05:40;;;;;;;17.48;12.07;;;25.70;59.10;;;;;;7639589;22;84137;-61
2023/07/04 02:08:40;;;;;;;18.65;12.23;;;25.70;59.10;;;;;;7637813;22;82982;-61
2023/07/04 02:11:41;;;;;;;19.02;11.68;;;25.70;59.30;;;;;;7612359;22;85996;-61
2023/07/04 02:14:41;;;;;;;16.20;11.35;;;25.70;59.30;;;;;;7611511;22;84759;-61
2023/07/04 02:17:42;;;;;;;19.15;12.68;;;25.70;59.30;;;;;;7637732;22;82804;-62
2023/07/04 02:20:43;;;;;;;18.52;11.95;;;25.70;59.30;;;;;;7638073;22;83651;-61
2023/07/04 02:23:44;;;;;;;20.30;12.70;;;25.70;59.30;;;;;;7637390;22;84328;-62
2023/07/04 02:26:45;;;;;;;18.30;11.20;;;25.70;59.40;;;;;;7611556;22;85700;-63
2023/07/04 02:29:47;;;;;;;18.45;12.73;;;25.70;59.40;;;;;;7610616;22;84418;-62
2023/07/04 02:32:49;;;;;;;20.40;12.13;;;25.70;59.50;;;;;;7610479;22;86100;-64
2023/07/04 02:35:50;;;;;;;20.02;12.48;;;25.70;59.50;;;;;;7610411;22;84925;-63
2023/07/04 02:38:53;;;;;;;17.85;11.05;;;25.70;59.40;;;;;;7610756;22;84183;-62
2023/07/04 02:41:54;;;;;;;17.80;12.10;;;25.70;59.50;;;;;;7610554;22;85200;-62
2023/07/04 02:44:55;;;;;;;22.80;12.35;;;25.70;59.50;;;;;;7611215;22;85771;-62
2023/07/04 02:47:56;;;;;;;22.23;12.57;;;25.70;59.60;;;;;;7609507;22;85745;-63
2023/07/04 02:50:57;;;;;;;18.75;12.15;;;25.70;59.50;;;;;;7610867;22;83191;-63
2023/07/04 02:53:58;;;;;;;19.63;12.43;;;25.70;59.50;;;;;;7609899;22;84716;-61
2023/07/04 02:56:59;;;;;;;17.67;11.85;;;25.70;59.40;;;;;;7611471;22;84840;-63
2023/07/04 02:59:59;;;;;;;19.20;11.80;;;25.70;59.50;;;;;;7610652;22;85160;-63
2023/07/04 03:03:02;;;;;;;18.48;11.68;;;25.70;59.40;;;;;;7611056;22;85375;-63
2023/07/04 03:06:04;;;;;;;22.40;12.55;;;25.70;59.40;;;;;;7611470;22;85805;-64
2023/07/04 03:09:06;;;;;;;21.08;12.98;;;25.70;59.40;;;;;;7612529;22;86014;-65
2023/07/04 03:12:07;;;;;;;21.98;12.05;;;25.70;59.40;;;;;;7611952;22;86033;-65
2023/07/04 03:15:08;;;;;;;19.92;12.10;;;25.60;59.30;;;;;;7612523;22;83953;-63
2023/07/04 03:18:13;;;;;;;17.43;11.83;;;25.70;59.30;;;;;;7610356;22;85441;-63
2023/07/04 03:21:15;;;;;;;18.83;12.00;;;25.70;59.30;;;;;;7612115;22;85804;-64
2023/07/04 03:24:15;;;;;;;17.92;11.63;;;25.70;59.30;;;;;;7639968;22;83477;-70
2023/07/04 03:27:16;;;;;;;20.27;11.63;;;25.70;59.30;;;;;;7612565;22;85592;-69
2023/07/04 03:30:17;;;;;;;19.83;12.30;;;25.70;59.30;;;;;;7613601;22;85618;-72
2023/07/04 03:33:21;;;;;;;19.05;11.68;;;25.70;59.10;;;;;;7612619;22;85549;-68
2023/07/04 06:00:57;;;;;;;23.77;12.85;;;25.60;59.90;;;;;;7639255;22;83570;-64
2023/07/04 06:03:58;;;;;;;19.33;12.57;;;25.70;60.10;;;;;;7633863;22;83360;-62
2023/07/04 06:07:01;;;;;;;21.42;13.00;;;25.70;60.00;;;;;;7611242;22;86303;-65
2023/07/04 06:10:02;;;;;;;18.85;11.95;;;25.60;59.90;;;;;;7632312;22;83021;-64
2023/07/04 06:13:02;;;;;;;26.20;12.93;;;25.60;60.10;;;;;;7636415;22;83337;-64
2023/07/04 06:16:03;;;;;;;24.83;12.25;;;25.50;60.10;;;;;;7634869;22;83488;-65
2023/07/04 06:19:03;;;;;;;23.08;12.68;;;25.50;60.10;;;;;;7633132;22;84083;-66
2023/07/04 06:22:06;;;;;;;18.30;12.32;;;25.40;60.30;;;;;;7611048;22;87519;-64
2023/07/04 06:25:07;;;;;;;22.30;12.07;;;25.50;60.30;;;;;;7636928;22;83105;-64
2023/07/04 06:28:08;;;;;;;21.58;12.38;;;25.60;60.30;;;;;;7637912;22;82950;-63
2023/07/04 06:31:08;;;;;;;20.38;12.07;;;25.70;60.30;;;;;;7610521;22;84174;-65
2023/07/04 06:34:09;;;;;;;23.38;12.63;;;25.70;60.20;;;;;;7609988;22;83951;-63
2023/07/04 06:37:09;;;;;;;20.70;12.25;;;25.70;60.10;;;;;;7637447;22;83365;-65
2023/07/04 06:40:10;;;;;;;23.25;13.48;;;25.70;60.30;;;;;;7638168;22;82990;-64
2023/07/04 06:43:10;;;;;;;18.75;11.77;;;25.80;60.00;;;;;;7632801;22;83477;-65
2023/07/04 06:46:11;;;;;;;23.75;13.18;;;25.80;60.10;;;;;;7638244;22;82962;-58
2023/07/04 06:49:12;;;;;;;20.10;11.80;;;25.70;59.90;;;;;;7637464;22;82839;-59
2023/07/04 06:52:12;;;;;;;21.15;12.23;;;25.80;60.00;;;;;;7638483;22;82882;-60
2023/07/04 06:55:13;;;;;;;20.52;12.63;;;25.80;59.90;;;;;;7638326;22;83521;-51
2023/07/04 06:58:15;;;;;;;26.35;13.38;;;25.80;59.70;;;;;;7638296;22;84568;-57
2023/07/04 07:01:15;;;;;;;22.73;12.98;;;25.60;59.50;;;;;;7639474;22;83127;-57
2023/07/04 07:04:17;;;;;;;22.27;11.98;;;25.60;60.10;;;;;;7637521;22;83467;-58
2023/07/04 07:07:17;;;;;;;26.08;13.05;;;25.60;60.20;;;;;;7638326;22;83208;-58
2023/07/04 07:10:18;;;;;;;23.45;12.32;;;25.60;60.30;;;;;;7638283;22;83313;-57
2023/07/04 07:13:18;;;;;;;22.67;11.70;;;25.70;60.60;;;;;;7639096;22;83235;-57
2023/07/04 07:16:19;;;;;;;28.63;13.35;;;25.50;59.50;;;;;;7638339;22;82952;-56
2023/07/04 07:19:19;;;;;;;20.05;13.30;;;25.40;59.60;;;;;;7637526;22;83105;-59
2023/07/04 07:22:20;;;;;;;24.25;12.25;;;25.40;59.20;;;;;;7638732;22;83599;-66
2023/07/04 07:25:20;;;;;;;22.08;12.63;;;25.50;59.40;;;;;;7635913;22;83048;-69
2023/07/04 07:28:21;;;;;;;22.17;11.98;;;25.60;59.40;;;;;;7638963;22;83111;-69
2023/07/04 07:31:21;;;;;;;20.85;12.25;;;25.60;58.70;;;;;;7636826;22;83036;-67
2023/07/04 07:34:22;;;;;;;16.45;10.15;;;25.70;59.00;;;;;;7637653;22;82989;-66
2023/07/04 07:37:22;;;;;;;19.65;11.40;;;25.70;57.50;;;;;;7636371;22;83070;-68
2023/07/04 07:40:23;;;;;;;24.00;11.68;;;25.70;57.80;;;;;;7636976;22;83161;-62
2023/07/04 07:43:23;;;;;;;16.15;10.57;;;25.80;58.30;;;;;;7637569;22;83369;-63
2023/07/04 07:46:24;;;;;;;24.58;10.82;;;25.80;56.90;;;;;;7638780;22;82997;-61
2023/07/04 07:49:24;;;;;;;17.98;10.77;;;25.70;56.60;;;;;;7639059;22;83553;-62
2023/07/04 07:52:25;;;;;;;17.75;10.40;;;25.70;56.70;;;;;;7638855;22;82767;-64
2023/07/04 07:55:26;;;;;;;19.17;10.20;;;25.80;57.00;;;;;;7638319;22;83109;-64
2023/07/04 07:58:26;;;;;;;16.00;10.32;;;25.80;57.00;;;;;;7637644;22;82969;-64
2023/07/04 08:01:29;;;;;;;19.45;8.98;;;25.90;56.40;;;;;;7636987;22;83275;-63
2023/07/04 08:04:29;;;;;;;20.00;8.95;;;25.90;54.40;;;;;;7641288;22;82989;-66
2023/07/04 08:07:30;;;;;;;17.67;8.50;;;26.00;54.60;;;;;;7642135;22;80251;-65
2023/07/04 08:10:30;;;;;;;15.50;8.85;;;26.00;53.30;;;;;;7643103;22;80593;-63
2023/07/04 08:13:31;;;;;;;98.05;50.25;;;26.00;52.70;;;;;;7643034;22;80549;-63
2023/07/04 08:16:31;;;;;;;89.18;44.53;;;26.10;52.70;;;;;;7638462;22;83090;-58
2023/07/04 08:19:32;;;;;;;76.78;35.83;;;26.00;51.40;;;;;;7638492;22;82832;-58
2023/07/04 08:22:32;;;;;;;48.45;24.10;;;26.10;51.10;;;;;;7638663;22;83679;-57
2023/07/04 08:25:33;;;;;;;31.30;15.45;;;26.00;49.10;;;;;;7637878;22;82752;-57
2023/07/04 08:28:33;;;;;;;34.28;15.40;;;26.10;49.10;;;;;;7638853;22;84141;-58
2023/07/04 08:31:34;;;;;;;36.15;17.05;;;26.00;49.30;;;;;;7639782;22;84209;-61
2023/07/04 08:34:35;;;;;;;30.73;13.73;;;26.10;49.90;;;;;;7637364;22;83394;-58
2023/07/04 08:37:35;;;;;;;21.48;9.30;;;26.10;49.80;;;;;;7635630;22;83185;-60
2023/07/04 08:40:36;;;;;;;21.80;9.75;;;25.90;49.50;;;;;;7639439;22;83705;-60
2023/07/04 08:43:36;;;;;;;16.95;8.60;;;26.00;49.60;;;;;;7641649;22;80326;-59
2023/07/04 08:46:37;;;;;;;14.80;8.45;;;26.00;50.00;;;;;;7641974;22;80677;-60
2023/07/04 08:49:38;;;;;;;21.10;9.85;;;26.10;50.90;;;;;;7641279;22;80727;-60
2023/07/04 08:52:39;;;;;;;16.45;9.23;;;26.20;51.00;;;;;;7641496;22;81068;-59
2023/07/04 08:55:40;;;;;;;21.63;8.70;;;26.20;50.80;;;;;;7641625;22;80768;-66
2023/07/04 08:58:40;;;;;;;17.73;8.05;;;26.20;50.00;;;;;;7637362;22;80439;-67
2023/07/04 09:01:41;;;;;;;17.13;8.48;;;26.10;50.00;;;;;;7641107;22;80452;-64
2023/07/04 09:04:46;;;;;;;18.33;8.40;;;26.20;49.80;;;;;;7642031;22;80682;-64
2023/07/04 09:07:47;;;;;;;16.00;7.88;;;26.20;49.90;;;;;;7642538;22;81132;-65
2023/07/04 09:10:49;;;;;;;18.83;8.25;;;26.20;50.60;;;;;;7641914;22;79994;-62
2023/07/04 09:13:50;;;;;;;19.58;8.65;;;26.30;50.80;;;;;;7644295;22;80883;-63
2023/07/04 09:16:51;;;;;;;12.48;6.80;;;26.30;50.60;;;;;;7642208;22;80271;-63
2023/07/04 09:19:52;;;;;;;14.52;7.75;;;26.50;50.70;;;;;;7643211;22;80434;-62
2023/07/04 09:22:52;;;;;;;16.08;7.60;;;26.50;50.60;;;;;;7643050;22;81224;-62
2023/07/04 09:25:53;;;;;;;13.90;7.30;;;26.50;50.20;;;;;;7643256;22;80696;-63
2023/07/04 09:28:54;;;;;;;14.95;7.38;;;26.60;49.80;;;;;;7642444;22;81792;-65
2023/07/04 09:31:54;;;;;;;16.52;7.03;;;26.60;49.60;;;;;;7642639;22;80134;-64
2023/07/04 09:34:55;;;;;;;13.52;7.05;;;26.60;50.40;;;;;;7643100;22;80300;-64
2023/07/04 09:37:56;;;;;;;15.07;6.97;;;26.70;50.30;;;;;;7643134;22;81747;-60
2023/07/04 09:40:57;;;;;;;14.23;7.85;;;26.60;50.50;;;;;;7642739;22;80092;-61
2023/07/04 09:43:57;;;;;;;15.02;7.60;;;26.60;51.10;;;;;;7642391;22;80534;-60
2023/07/04 09:46:58;;;;;;;15.75;8.07;;;26.60;51.20;;;;;;7642632;22;80291;-61
2023/07/04 09:49:58;;;;;;;17.08;8.60;;;26.60;51.40;;;;;;7640576;22;80807;-62
2023/07/04 09:53:00;;;;;;;22.15;7.80;;;26.60;51.60;;;;;;7639275;22;81453;-64
2023/07/04 09:56:01;;;;;;;21.65;8.57;;;26.60;51.50;;;;;;7637840;22;80911;-64
2023/07/04 09:59:01;;;;;;;11.60;7.30;;;26.50;51.50;;;;;;7641827;22;80439;-64
2023/07/04 10:02:02;;;;;;;21.55;7.60;;;26.50;51.60;;;;;;7638439;22;81286;-63
2023/07/04 10:05:03;;;;;;;17.92;8.48;;;26.60;51.80;;;;;;7641349;22;80368;-58
2023/07/04 10:08:05;;;;;;;14.60;7.50;;;26.60;51.50;;;;;;7642297;22;80348;-58
2023/07/04 10:11:06;;;;;;;16.67;7.82;;;26.70;51.30;;;;;;7643299;22;81005;-60
2023/07/04 10:14:09;;;;;;;16.63;7.80;;;26.70;51.40;;;;;;7642530;22;80325;-60
2023/07/04 10:17:09;;;;;;;12.50;6.70;;;26.70;51.40;;;;;;7643932;22;80877;-66
2023/07/04 10:20:11;;;;;;;10.88;6.65;;;26.70;51.30;;;;;;7644400;22;80906;-66
2023/07/04 10:23:12;;;;;;;13.57;6.47;;;26.70;50.70;;;;;;7644651;22;80723;-65
2023/07/04 10:26:12;;;;;;;15.63;7.25;;;26.70;50.70;;;;;;7642671;22;80439;-65
2023/07/04 10:29:13;;;;;;;13.05;6.43;;;26.80;50.70;;;;;;7644302;22;80693;-67
2023/07/04 10:32:14;;;;;;;10.55;6.05;;;26.80;50.80;;;;;;7644644;22;80332;-66
2023/07/04 10:35:14;;;;;;;9.20;5.93;;;26.80;51.00;;;;;;7644069;22;80354;-66
2023/07/04 10:38:15;;;;;;;15.27;6.35;;;26.80;50.70;;;;;;7641551;22;81658;-65
2023/07/04 10:41:16;;;;;;;14.27;7.15;;;26.80;50.70;;;;;;7644285;22;79924;-64
2023/07/04 10:44:16;;;;;;;9.55;5.85;;;26.80;50.60;;;;;;7617586;22;83820;-67
2023/07/04 10:47:17;;;;;;;18.00;5.88;;;26.70;50.20;;;;;;7643406;22;80494;-66
2023/07/04 10:50:17;;;;;;;15.65;5.60;;;26.70;50.50;;;;;;7644244;22;80353;-66
2023/07/04 10:53:19;;;;;;;16.20;6.38;;;26.70;49.90;;;;;;7642195;22;80375;-67
2023/07/04 10:56:20;;;;;;;10.73;6.30;;;26.70;49.30;;;;;;7642543;22;80917;-69
2023/07/04 10:59:20;;;;;;;9.70;5.80;;;26.80;49.10;;;;;;7641407;22;80061;-64
2023/07/04 11:02:20;;;;;;;10.57;5.68;;;26.80;49.00;;;;;;7642899;22;80914;-64
2023/07/04 11:05:21;;;;;;;11.57;6.15;;;26.80;48.70;;;;;;7642668;22;81118;-65
2023/07/04 11:08:21;;;;;;;16.23;6.55;;;26.80;49.40;;;;;;7643085;22;81033;-65
2023/07/04 11:11:23;;;;;;;12.32;6.00;;;26.80;49.60;;;;;;7641279;22;80209;-66
2023/07/04 11:14:24;;;;;;;13.95;5.90;;;26.80;49.70;;;;;;7641412;22;80587;-68
2023/07/04 11:17:24;;;;;;;11.25;6.22;;;26.80;49.50;;;;;;7642670;22;80197;-66
2023/07/04 11:20:25;;;;;;;12.32;6.38;;;26.80;49.90;;;;;;7642307;22;81415;-66
2023/07/04 11:23:25;;;;;;;11.02;6.75;;;26.80;50.50;;;;;;7642512;22;80374;-65
2023/07/04 11:26:26;;;;;;;14.15;6.82;;;26.80;51.30;;;;;;7641339;22;80438;-67
2023/07/04 11:29:28;;;;;;;10.15;5.90;;;26.80;51.40;;;;;;7642423;22;80844;-66
2023/07/04 11:32:28;;;;;;;9.73;5.75;;;26.90;50.60;;;;;;7640199;22;80247;-66
2023/07/04 11:35:29;;;;;;;13.32;6.40;;;26.90;50.40;;;;;;7641800;22;80732;-70
2023/07/04 11:38:30;;;;;;;10.10;6.85;;;26.90;50.40;;;;;;7642283;22;80640;-69
2023/07/04 11:41:31;;;;;;;14.23;7.18;;;26.90;49.10;;;;;;7641562;22;80250;-69
2023/07/04 11:44:31;;;;;;;12.68;7.22;;;26.90;49.50;;;;;;7642874;22;80994;-69
2023/07/04 11:47:34;;;;;;;11.88;7.10;;;27.00;49.90;;;;;;7642526;22;80553;-69
2023/07/04 11:50:34;;;;;;;13.48;8.02;;;27.00;50.30;;;;;;7640198;22;80175;-68
2023/07/04 11:53:35;;;;;;;14.95;8.45;;;26.90;50.30;;;;;;7616607;22;80415;-68
2023/07/04 11:56:35;;;;;;;13.02;9.13;;;26.90;50.10;;;;;;7639620;22;81660;-67
2023/07/04 12:18:13;;;;;;;19.48;10.63;;;27.00;47.60;;;;;;7507956;22;85061;-64
2023/07/04 12:21:13;;;;;;;21.30;12.27;;;26.90;48.50;;;;;;7638079;22;89689;-63
2023/07/04 12:24:15;;;;;;;18.38;11.77;;;26.90;47.70;;;;;;7623573;22;84049;-59
2023/07/04 12:27:17;;;;;;;19.90;11.25;;;26.90;45.80;;;;;;7634154;22;83689;-58
2023/07/04 12:30:18;;;;;;;16.73;10.20;;;26.90;47.00;;;;;;7632512;22;82897;-58
2023/07/04 12:33:18;;;;;;;16.63;10.30;;;26.90;46.70;;;;;;7634316;22;83151;-58
2023/07/04 12:36:19;;;;;;;16.15;10.38;;;26.90;46.60;;;;;;7633136;22;82988;-59
2023/07/04 12:39:20;;;;;;;12.45;8.65;;;26.90;46.90;;;;;;7637607;22;83725;-58
2023/07/04 12:42:20;;;;;;;17.45;8.48;;;26.90;47.00;;;;;;7639777;22;81752;-58
2023/07/04 12:45:21;;;;;;;10.35;7.10;;;26.90;47.20;;;;;;7639432;22;80639;-60
2023/07/04 12:48:21;;;;;;;11.43;7.60;;;27.00;47.30;;;;;;7640051;22;81042;-59
2023/07/04 12:51:22;;;;;;;11.57;7.40;;;27.00;47.80;;;;;;7640549;22;80308;-59
2023/07/04 12:54:22;;;;;;;11.57;6.43;;;27.00;48.10;;;;;;7638226;22;80236;-58
2023/07/04 12:57:23;;;;;;;9.52;6.07;;;27.00;48.00;;;;;;7643626;22;80129;-58
2023/07/04 13:00:25;;;;;;;9.60;5.82;;;27.00;48.00;;;;;;7643019;22;80682;-58
2023/07/04 13:03:26;;;;;;;8.80;5.50;;;27.00;47.50;;;;;;7643878;22;80461;-58
2023/07/04 13:06:28;;;;;;;6.93;5.15;;;27.00;48.50;;;;;;7640138;22;81427;-58
2023/07/04 13:09:28;;;;;;;8.32;4.60;;;26.90;46.50;;;;;;7636567;22;80598;-58
2023/07/04 13:12:29;;;;;;;15.32;4.22;;;26.90;46.50;;;;;;7624392;22;80145;-58
2023/07/04 13:15:30;;;;;;;4.38;3.60;;;27.00;46.60;;;;;;7636127;22;80605;-58
2023/07/04 13:18:31;;;;;;;6.07;4.15;;;27.00;46.40;;;;;;7641821;22;81416;-58
2023/07/04 13:21:32;;;;;;;10.63;3.60;;;27.00;46.90;;;;;;7642741;22;81275;-58
2023/07/04 13:24:33;;;;;;;5.45;3.40;;;27.00;47.00;;;;;;7642318;22;81034;-58
2023/07/04 13:27:34;;;;;;;5.63;3.53;;;26.90;46.70;;;;;;7641316;22;80568;-58
2023/07/04 13:30:34;;;;;;;4.72;3.65;;;26.90;47.20;;;;;;7640707;22;81172;-57
2023/07/04 13:33:35;;;;;;;4.25;3.20;;;26.90;47.40;;;;;;7639120;22;80918;-56
2023/07/04 13:36:35;;;;;;;6.60;3.40;;;26.90;47.40;;;;;;7643198;22;81480;-57
2023/07/04 13:39:36;;;;;;;8.32;3.25;;;26.90;47.40;;;;;;7641010;22;80311;-58
2023/07/04 13:42:36;;;;;;;5.00;3.15;;;26.90;47.30;;;;;;7642622;22;80298;-57
2023/07/04 13:45:37;;;;;;;3.13;2.78;;;27.00;47.50;;;;;;7641704;22;80380;-58
2023/07/04 13:48:37;;;;;;;4.30;3.22;;;27.00;47.40;;;;;;7614507;22;81677;-66
2023/07/04 13:51:38;;;;;;;3.58;2.67;;;26.90;47.20;;;;;;7616149;22;82935;-65
2023/07/04 13:54:38;;;;;;;4.93;2.85;;;26.90;46.80;;;;;;7642834;22;81466;-68
2023/07/04 13:57:39;;;;;;;4.05;2.92;;;26.90;47.40;;;;;;7642990;22;80081;-68
2023/07/04 14:00:40;;;;;;;3.75;2.50;;;26.90;47.40;;;;;;7643238;22;80819;-68
2023/07/04 14:03:40;;;;;;;5.68;3.28;;;26.90;47.40;;;;;;7640960;22;80971;-69
2023/07/04 14:06:41;;;;;;;6.68;3.58;;;26.90;47.60;;;;;;7635114;22;81484;-65
2023/07/04 14:09:41;;;;;;;4.43;2.60;;;26.90;47.80;;;;;;7640833;22;80463;-67
2023/07/04 14:12:42;;;;;;;3.97;2.97;;;26.90;47.60;;;;;;7639185;22;81348;-65
2023/07/04 14:15:43;;;;;;;7.93;2.72;;;26.90;47.70;;;;;;7636607;22;80507;-70
2023/07/04 14:18:43;;;;;;;4.43;2.75;;;27.00;47.70;;;;;;7639506;22;80274;-67
2023/07/04 14:21:44;;;;;;;4.50;2.53;;;27.00;47.70;;;;;;7638863;22;81330;-60
2023/07/04 14:24:44;;;;;;;4.00;2.80;;;27.00;47.80;;;;;;7642341;22;80405;-64
2023/07/04 14:27:45;;;;;;;4.72;2.97;;;27.00;47.50;;;;;;7642205;22;80871;-64
2023/07/04 14:30:45;;;;;;;4.28;2.70;;;27.00;48.00;;;;;;7640833;22;80444;-64
2023/07/04 14:33:46;;;;;;;5.72;2.88;;;27.00;48.50;;;;;;7642897;22;80923;-64
2023/07/04 14:36:46;;;;;;;5.85;2.90;;;27.00;48.50;;;;;;7641570;22;82583;-69
2023/07/04 14:39:47;;;;;;;5.90;3.17;;;27.00;47.60;;;;;;7641470;22;80509;-65
2023/07/04 14:42:47;;;;;;;6.90;2.97;;;27.00;47.80;;;;;;7635891;22;81244;-68
2023/07/04 14:45:48;;;;;;;9.35;3.17;;;27.00;47.80;;;;;;7640281;22;80445;-60
2023/07/04 14:48:48;;;;;;;5.55;2.75;;;27.00;48.10;;;;;;7640937;22;80856;-70
2023/07/04 14:51:49;;;;;;;11.52;3.40;;;26.90;48.40;;;;;;7642315;22;80353;-65
2023/07/04 14:54:49;;;;;;;5.15;3.00;;;26.90;47.90;;;;;;7635505;22;80607;-68
2023/07/04 14:57:50;;;;;;;4.50;2.92;;;26.90;47.60;;;;;;7637837;22;81347;-69
2023/07/04 15:00:50;;;;;;;6.22;3.10;;;26.90;47.70;;;;;;7639123;22;81075;-70
2023/07/04 15:03:56;;;;;;;7.95;2.85;;;26.90;48.70;;;;;;7640237;22;80218;-68
2023/07/04 15:06:59;;;;;;;5.53;2.77;;;26.90;48.00;;;;;;7613440;22;81874;-68
2023/07/04 15:10:00;;;;;;;4.88;2.22;;;26.90;47.60;;;;;;7642900;22;81161;-68
2023/07/04 15:13:00;;;;;;;5.88;2.92;;;26.80;47.20;;;;;;7616331;22;82895;-68
2023/07/04 15:16:05;;;;;;;5.35;2.60;;;26.90;47.10;;;;;;7643180;22;80266;-64
2023/07/04 15:19:06;;;;;;;9.05;3.97;;;26.90;47.80;;;;;;7638544;22;85137;-67
2023/07/04 15:22:06;;;;;;;38.97;20.38;;;26.90;47.60;;;;;;7641740;22;80938;-68
2023/07/04 15:25:07;;;;;;;65.03;37.47;;;26.80;47.40;;;;;;7638989;22;83104;-68
2023/07/04 15:28:07;;;;;;;97.75;57.70;;;26.90;47.70;;;;;;7639419;22;83013;-67
2023/07/04 15:31:08;;;;;;;119.60;65.60;;;26.90;48.00;;;;;;7638196;22;83543;-69
2023/07/04 15:34:10;;;;;;;123.63;71.03;;;26.90;48.40;;;;;;7639742;22;85025;-69
2023/07/04 15:37:11;;;;;;;126.18;68.00;;;26.90;48.50;;;;;;7638745;22;83034;-59
2023/07/04 15:40:11;;;;;;;91.28;49.60;;;26.90;48.60;;;;;;7636962;22;82831;-59
2023/07/04 15:43:12;;;;;;;81.57;44.35;;;26.80;48.50;;;;;;7637599;22;82889;-59
2023/07/04 15:46:13;;;;;;;134.55;69.03;;;26.90;48.70;;;;;;7640545;22;83068;-58
2023/07/04 15:49:13;;;;;;;110.95;52.47;;;26.90;48.80;;;;;;7639686;22;83510;-59
2023/07/04 15:52:14;;;;;;;76.43;40.20;;;26.90;48.90;;;;;;7634616;22;84061;-59
2023/07/04 15:55:14;;;;;;;33.90;17.58;;;26.80;48.80;;;;;;7633325;22;84087;-59
2023/07/04 15:58:15;;;;;;;18.85;9.13;;;26.80;48.60;;;;;;7636890;22;83373;-59
2023/07/04 16:01:15;;;;;;;14.73;7.63;;;26.80;48.80;;;;;;7643993;22;82853;-59
2023/07/04 16:04:16;;;;;;;10.82;5.45;;;26.80;48.90;;;;;;7641771;22;81518;-59
2023/07/04 16:07:16;;;;;;;11.70;3.22;;;26.80;48.90;;;;;;7642345;22;80551;-58
2023/07/04 16:10:17;;;;;;;5.95;3.53;;;26.80;48.70;;;;;;7639477;22;81292;-60
2023/07/04 16:13:18;;;;;;;4.80;2.80;;;26.80;49.10;;;;;;7640240;22;81212;-59
2023/07/04 16:16:18;;;;;;;7.55;2.90;;;26.80;48.80;;;;;;7642133;22;80309;-58
2023/07/04 16:19:19;;;;;;;4.97;2.53;;;26.80;49.50;;;;;;7639463;22;80908;-60
2023/07/04 16:22:19;;;;;;;3.33;2.40;;;26.80;49.20;;;;;;7642368;22;80914;-59
2023/07/04 16:25:20;;;;;;;5.93;2.90;;;26.70;49.40;;;;;;7644012;22;80718;-61
2023/07/04 16:28:21;;;;;;;4.20;2.65;;;26.70;49.30;;;;;;7635794;22;80456;-62
2023/07/04 16:31:21;;;;;;;5.15;2.50;;;26.70;49.40;;;;;;7643707;22;80133;-64
2023/07/04 16:34:22;;;;;;;7.07;2.65;;;26.70;49.30;;;;;;7640278;22;80563;-62
2023/07/04 16:37:22;;;;;;;7.38;2.83;;;26.70;49.20;;;;;;7634196;22;81450;-61
2023/07/04 16:40:23;;;;;;;4.60;2.20;;;26.70;49.50;;;;;;7641086;22;80302;-62
2023/07/04 16:43:23;;;;;;;11.40;5.30;;;26.70;49.80;;;;;;7641527;22;80273;-63
2023/07/04 16:46:24;;;;;;;17.60;5.80;;;26.70;49.70;;;;;;7640682;22;80160;-62
2023/07/04 16:49:24;;;;;;;16.17;7.05;;;26.70;49.60;;;;;;7642127;22;80421;-65
2023/07/04 16:52:25;;;;;;;10.93;5.80;;;26.80;49.60;;;;;;7643990;22;80191;-63
2023/07/04 16:55:26;;;;;;;11.10;5.03;;;26.70;49.80;;;;;;7643871;22;80767;-65
2023/07/04 16:58:26;;;;;;;9.45;4.95;;;26.80;49.80;;;;;;7617394;22;83407;-72
2023/07/04 17:01:27;;;;;;;6.32;4.38;;;26.80;49.60;;;;;;7647500;22;80423;-61
2023/07/04 17:04:27;;;;;;;8.35;3.58;;;26.80;50.00;;;;;;7621814;22;81735;-67
2023/07/04 17:07:28;;;;;;;8.38;3.70;;;26.80;49.80;;;;;;7648023;22;80549;-69
2023/07/04 17:10:28;;;;;;;8.13;3.35;;;26.70;49.90;;;;;;7643498;22;80409;-60
2023/07/04 17:13:29;;;;;;;7.72;3.30;;;26.70;50.00;;;;;;7642212;22;80612;-67
2023/07/04 17:16:29;;;;;;;4.93;2.65;;;26.80;50.20;;;;;;7643226;22;80185;-64
2023/07/04 17:19:30;;;;;;;10.23;2.90;;;26.80;50.20;;;;;;7640933;22;80223;-68
2023/07/04 17:22:30;;;;;;;5.57;3.00;;;26.80;50.50;;;;;;7641833;22;80318;-63
2023/07/04 17:25:31;;;;;;;5.97;2.63;;;26.70;50.40;;;;;;7641980;22;80763;-64
2023/07/04 17:28:33;;;;;;;6.30;2.85;;;26.70;50.50;;;;;;7642963;22;80584;-63
2023/07/04 17:31:34;;;;;;;6.32;2.90;;;26.70;50.50;;;;;;7639404;22;80351;-73
2023/07/04 17:34:34;;;;;;;5.88;2.95;;;26.80;50.60;;;;;;7641933;22;80858;-64
2023/07/04 17:37:35;;;;;;;5.60;2.95;;;26.70;51.70;;;;;;7640438;22;80429;-65
2023/07/04 17:40:36;;;;;;;6.30;3.25;;;26.70;54.10;;;;;;7641549;22;80303;-67
2023/07/04 17:43:36;;;;;;;5.85;2.72;;;26.70;53.60;;;;;;7640492;22;81060;-64
2023/07/04 17:46:37;;;;;;;9.13;3.20;;;26.60;53.60;;;;;;7635152;22;80423;-75
2023/07/04 17:49:37;;;;;;;8.48;3.35;;;26.70;56.70;;;;;;7626031;22;81799;-63
2023/07/04 17:52:38;;;;;;;7.28;3.10;;;26.60;56.30;;;;;;7635528;22;81109;-74
2023/07/04 17:55:38;;;;;;;3.80;2.55;;;26.60;55.30;;;;;;7640053;22;80318;-68
2023/07/04 17:58:39;;;;;;;7.85;2.72;;;26.60;53.70;;;;;;7639315;22;80301;-69
2023/07/04 18:01:40;;;;;;;5.50;2.97;;;26.60;55.30;;;;;;7639433;22;80512;-76
2023/07/04 18:04:40;;;;;;;3.95;2.63;;;26.60;54.30;;;;;;7639357;22;80289;-66
2023/07/04 18:07:41;;;;;;;7.50;3.10;;;26.60;53.40;;;;;;7640890;22;80786;-72
2023/07/04 18:10:41;;;;;;;4.30;2.53;;;26.60;52.80;;;;;;7615453;22;80882;-68